Aviation Digital Data Service (ADDS)

Output produced by METARs form (1950 UTC 17 November 2019)
found at http://www.aviationweather.gov/metar/data/
 
LFRN 171930Z AUTO 28003KT 0450 0350 R28/0400N R10/0650U FG VV/// 04/04 Q1012 TEMPO 0200 FG
TAF AMD LFRN 171849Z 1718/1818 VRB03KT 2000 BR OVC003 
     BECMG 1718/1720 0500 FG VV/// 
     TEMPO 1720/1809 0200 FG 
     BECMG 1809/1811 3000 BR BKN005 
     BECMG 1812/1814 9999 NSW BKN030 
     BECMG 1816/1818 3000 BR